createdAt,value
2019-06-10T00:01:51.379Z,2.67
2019-06-10T00:04:22.078Z,3.10
2019-06-10T00:06:50.943Z,3.60
2019-06-10T00:09:31.195Z,2.50
2019-06-10T00:12:04.390Z,2.33
2019-06-10T00:14:37.043Z,2.67
2019-06-10T00:17:07.611Z,2.92
2019-06-10T00:19:44.612Z,2.87
2019-06-10T00:22:15.380Z,3.20
2019-06-10T00:24:55.410Z,2.80
2019-06-10T00:27:44.202Z,2.27
2019-06-10T00:30:15.237Z,2.77
2019-06-10T00:32:51.491Z,2.72
2019-06-10T00:35:21.108Z,2.87
2019-06-10T00:37:56.393Z,2.50
2019-06-10T00:40:22.119Z,4.00
2019-06-10T00:42:51.467Z,2.75
2019-06-10T00:45:21.945Z,2.40
2019-06-10T00:47:52.058Z,2.60
2019-06-10T00:50:23.172Z,2.90
2019-06-10T00:52:53.756Z,2.10
2019-06-10T00:55:21.975Z,2.60
2019-06-10T00:57:52.109Z,2.80
2019-06-10T01:00:25.988Z,4.05
2019-06-10T01:02:55.394Z,2.72
2019-06-10T01:05:25.650Z,2.80
2019-06-10T01:07:57.961Z,2.40
2019-06-10T01:10:31.541Z,2.80
2019-06-10T01:13:00.918Z,2.52
2019-06-10T01:15:31.108Z,2.80
2019-06-10T01:18:21.062Z,2.65
2019-06-10T01:20:41.312Z,2.85
2019-06-10T01:23:13.577Z,2.55
2019-06-10T01:25:42.353Z,2.62
2019-06-10T01:28:18.554Z,2.47
2019-06-10T01:31:01.877Z,2.87
2019-06-10T01:33:35.579Z,2.60
2019-06-10T01:36:07.661Z,2.37
2019-06-10T01:38:38.157Z,2.55
2019-06-10T01:41:06.111Z,2.45
2019-06-10T01:43:36.372Z,2.72
2019-06-10T01:46:06.624Z,2.90
2019-06-10T01:48:47.230Z,2.75
2019-06-10T01:51:18.372Z,2.80
2019-06-10T01:53:47.839Z,2.75
2019-06-10T01:56:17.018Z,2.80
2019-06-10T01:58:46.618Z,2.67
2019-06-10T02:01:23.680Z,3.00
2019-06-10T02:03:51.937Z,2.60
2019-06-10T02:06:25.306Z,3.10
2019-06-10T02:08:54.159Z,2.67
2019-06-10T02:11:23.517Z,2.58
2019-06-10T02:13:51.714Z,2.83
2019-06-10T02:16:24.088Z,2.67
2019-06-10T02:19:00.567Z,2.67
2019-06-10T02:21:24.593Z,2.70
2019-06-10T02:23:54.641Z,2.92
2019-06-10T02:26:23.716Z,2.47
2019-06-10T02:28:52.328Z,2.75
2019-06-10T02:31:30.017Z,3.45
2019-06-10T02:33:52.324Z,2.87
2019-06-10T02:36:28.073Z,2.80
2019-06-10T02:38:53.710Z,2.72
2019-06-10T02:41:31.326Z,2.80
2019-06-10T02:43:54.313Z,2.47
2019-06-10T02:46:30.773Z,3.00
2019-06-10T02:49:16.420Z,2.75
2019-06-10T02:51:30.815Z,3.30
2019-06-10T02:53:58.098Z,2.87
2019-06-10T02:56:30.681Z,3.37
2019-06-10T02:58:56.843Z,3.12
2019-06-10T03:01:31.892Z,2.85
2019-06-10T03:03:58.644Z,2.80
2019-06-10T03:06:35.099Z,2.77
2019-06-10T03:08:56.231Z,2.70
2019-06-10T03:11:33.481Z,3.35
2019-06-10T03:14:02.479Z,3.22
2019-06-10T03:16:48.683Z,2.92
2019-06-10T03:19:33.234Z,2.90
2019-06-10T03:21:47.115Z,2.62
2019-06-10T03:24:16.999Z,2.80
2019-06-10T03:26:45.051Z,3.30
2019-06-10T03:29:13.130Z,2.87
2019-06-10T03:31:47.205Z,2.90
2019-06-10T03:34:14.662Z,2.72
2019-06-10T03:36:42.955Z,2.92
2019-06-10T03:39:14.665Z,3.55
2019-06-10T03:41:52.910Z,3.12
2019-06-10T03:44:23.960Z,3.10
2019-06-10T03:46:52.640Z,3.00
2019-06-10T03:49:21.877Z,3.05
2019-06-10T03:51:52.979Z,3.00
2019-06-10T03:54:24.436Z,3.12
2019-06-10T03:56:52.069Z,2.95
2019-06-10T03:59:21.730Z,3.12
2019-06-10T04:01:52.752Z,3.00
2019-06-10T04:04:24.059Z,3.08
2019-06-10T04:06:53.173Z,4.05
2019-06-10T04:09:23.625Z,2.90
2019-06-10T04:11:53.399Z,3.00
2019-06-10T04:14:32.707Z,2.40
2019-06-10T04:17:02.783Z,2.67
2019-06-10T04:19:48.499Z,3.40
2019-06-10T04:22:19.602Z,3.35
2019-06-10T04:24:51.941Z,3.15
2019-06-10T04:27:22.727Z,2.75
2019-06-10T04:29:52.382Z,3.22
2019-06-10T04:32:23.131Z,2.60
2019-06-10T04:34:52.983Z,2.85
2019-06-10T04:37:27.499Z,3.70
2019-06-10T04:39:57.602Z,3.10
2019-06-10T04:42:29.752Z,3.10
2019-06-10T04:44:59.094Z,2.80
2019-06-10T04:47:28.327Z,2.80
2019-06-10T04:49:58.946Z,2.98
2019-06-10T04:52:32.908Z,3.42
2019-06-10T04:55:08.979Z,3.65
2019-06-10T04:57:37.165Z,3.70
2019-06-10T05:00:12.022Z,3.30
2019-06-10T05:02:39.798Z,3.12
2019-06-10T05:05:08.366Z,2.85
2019-06-10T05:07:37.193Z,3.40
2019-06-10T05:10:07.263Z,3.35
2019-06-10T05:12:35.153Z,3.50
2019-06-10T05:15:04.853Z,3.62
2019-06-10T05:17:34.361Z,3.08
2019-06-10T05:20:02.671Z,3.77
2019-06-10T05:22:32.748Z,3.55
2019-06-10T05:25:02.485Z,3.15
2019-06-10T05:27:30.842Z,3.52
2019-06-10T05:30:02.087Z,3.40
2019-06-10T05:32:29.096Z,3.22
2019-06-10T05:34:56.986Z,4.08
2019-06-10T05:37:26.429Z,3.70
2019-06-10T05:39:54.348Z,3.10
2019-06-10T05:42:24.445Z,3.70
2019-06-10T05:44:52.456Z,3.52
2019-06-10T05:47:23.352Z,3.98
2019-06-10T05:49:50.139Z,3.40
2019-06-10T05:52:18.045Z,3.90
2019-06-10T05:54:45.877Z,3.95
2019-06-10T05:57:13.766Z,3.80
2019-06-10T05:59:43.261Z,3.50
2019-06-10T06:02:12.853Z,3.27
2019-06-10T06:04:42.851Z,3.90
2019-06-10T06:07:12.754Z,4.05
2019-06-10T06:09:39.955Z,3.70
2019-06-10T06:12:10.964Z,3.52
2019-06-10T06:14:37.781Z,3.80
2019-06-10T06:17:05.723Z,3.35
2019-06-10T06:19:36.920Z,3.55
2019-06-10T06:22:03.122Z,3.47
2019-06-10T06:24:33.885Z,3.67
2019-06-10T06:27:02.519Z,3.98
2019-06-10T06:29:31.493Z,4.35
2019-06-10T06:31:59.806Z,3.98
2019-06-10T06:34:28.428Z,3.85
2019-06-10T06:36:56.383Z,4.22
2019-06-10T06:39:24.403Z,3.75
2019-06-10T06:41:52.856Z,3.40
2019-06-10T06:44:23.184Z,4.10
2019-06-10T06:46:50.428Z,4.35
2019-06-10T06:49:18.302Z,3.83
2019-06-10T06:51:54.574Z,4.03
2019-06-10T06:54:15.745Z,4.22
2019-06-10T06:56:43.933Z,3.45
2019-06-10T06:59:13.139Z,3.80
2019-06-10T07:01:44.050Z,4.15
2019-06-10T07:04:12.993Z,4.03
2019-06-10T07:06:43.006Z,4.87
2019-06-10T07:09:10.226Z,4.05
2019-06-10T07:11:39.886Z,4.30
2019-06-10T07:14:10.144Z,3.72
2019-06-10T07:16:39.156Z,4.42
2019-06-10T07:19:06.997Z,3.70
2019-06-10T07:21:55.768Z,3.87
2019-06-10T07:24:04.902Z,4.03
2019-06-10T07:26:35.742Z,4.00
2019-06-10T07:29:02.911Z,4.30
2019-06-10T07:31:33.584Z,4.57
2019-06-10T07:34:02.633Z,3.87
2019-06-10T07:36:32.499Z,3.73
2019-06-10T07:38:59.671Z,3.90
2019-06-10T07:41:27.573Z,3.83
2019-06-10T07:43:55.380Z,4.23
2019-06-10T07:46:23.291Z,4.43
2019-06-10T07:48:56.091Z,4.00
2019-06-10T07:51:22.613Z,4.40
2019-06-10T07:53:52.612Z,3.90
2019-06-10T07:56:20.025Z,4.10
2019-06-10T07:58:47.880Z,4.10
2019-06-10T08:01:15.691Z,3.60
2019-06-10T08:03:46.406Z,3.70
2019-06-10T08:06:13.082Z,3.97
2019-06-10T08:08:44.776Z,4.20
2019-06-10T08:11:13.398Z,3.40
2019-06-10T08:13:42.913Z,3.13
2019-06-10T08:16:09.737Z,3.57
2019-06-10T08:18:49.912Z,4.30
2019-06-10T08:21:07.123Z,3.50
2019-06-10T08:23:36.898Z,3.17
2019-06-10T08:26:04.593Z,4.13
2019-06-10T08:28:33.236Z,2.87
2019-06-10T08:31:03.612Z,3.33
2019-06-10T08:33:33.076Z,4.00
2019-06-10T08:36:03.627Z,3.27
2019-06-10T08:38:32.698Z,3.70
2019-06-10T08:40:59.574Z,4.00
2019-06-10T08:43:27.723Z,4.10
2019-06-10T08:45:55.520Z,3.73
2019-06-10T08:48:23.394Z,4.10
2019-06-10T08:50:53.019Z,3.47
2019-06-10T08:53:22.721Z,3.80
2019-06-10T08:55:53.414Z,3.70
2019-06-10T08:58:22.382Z,3.57
2019-06-10T09:00:49.632Z,3.80
2019-06-10T09:03:17.475Z,3.87
2019-06-10T09:05:49.003Z,4.07
2019-06-10T09:08:14.886Z,3.83
2019-06-10T09:10:47.391Z,3.50
2019-06-10T09:13:13.410Z,3.60
2019-06-10T09:15:44.661Z,3.30
2019-06-10T09:18:13.980Z,4.13
2019-06-10T09:20:44.450Z,3.50
2019-06-10T09:23:21.499Z,3.40
2019-06-10T09:25:41.528Z,3.80
2019-06-10T09:28:09.502Z,3.07
2019-06-10T09:30:37.298Z,3.27
2019-06-10T09:33:05.194Z,3.63
2019-06-10T09:35:33.051Z,3.67
2019-06-10T09:38:03.519Z,3.87
2019-06-10T09:40:48.048Z,3.67
2019-06-10T09:43:14.247Z,4.00
2019-06-10T09:45:45.932Z,3.10
2019-06-10T09:48:13.283Z,3.90
2019-06-10T09:50:48.814Z,3.90
2019-06-10T09:53:28.969Z,3.67
2019-06-10T09:55:46.053Z,4.10
2019-06-10T09:58:12.652Z,3.53
2019-06-10T10:00:49.281Z,3.60
2019-06-10T10:03:16.640Z,3.57
2019-06-10T10:05:55.910Z,3.80
2019-06-10T10:08:14.277Z,3.90
2019-06-10T10:10:49.469Z,3.70
2019-06-10T10:13:14.693Z,4.10
2019-06-10T10:15:43.569Z,4.57
2019-06-10T10:18:33.616Z,3.90
2019-06-10T10:21:03.878Z,3.73
2019-06-10T10:23:49.059Z,3.73
2019-06-10T10:26:06.879Z,4.00
2019-06-10T10:28:42.793Z,3.70
2019-06-10T10:31:20.077Z,3.37
2019-06-10T10:33:48.412Z,3.73
2019-06-10T10:36:17.979Z,4.20
2019-06-10T10:38:48.781Z,3.80
2019-06-10T10:41:16.843Z,4.07
2019-06-10T10:43:51.164Z,3.97
2019-06-10T10:46:18.229Z,4.00
2019-06-10T10:48:47.096Z,4.00
2019-06-10T10:51:16.402Z,4.10
2019-06-10T10:53:50.556Z,3.90
2019-06-10T10:56:16.757Z,4.27
2019-06-10T10:58:47.353Z,4.67
2019-06-10T11:01:17.399Z,5.30
2019-06-10T11:03:48.234Z,4.30
2019-06-10T11:06:25.123Z,4.20
2019-06-10T11:08:57.111Z,3.30
2019-06-10T11:11:33.150Z,3.73
2019-06-10T11:14:05.263Z,3.63
2019-06-10T11:16:34.899Z,3.23
2019-06-10T11:19:03.179Z,3.00
2019-06-10T11:21:33.065Z,3.13
2019-06-10T11:24:04.660Z,3.67
2019-06-10T11:26:32.990Z,3.70
2019-06-10T11:29:06.517Z,3.33
2019-06-10T11:31:35.071Z,3.60
2019-06-10T11:34:05.727Z,3.80
2019-06-10T11:36:33.734Z,3.23
2019-06-10T11:39:07.092Z,3.43
2019-06-10T11:41:35.166Z,2.97
2019-06-10T11:44:03.943Z,3.17
2019-06-10T11:46:33.475Z,3.30
2019-06-10T11:49:03.861Z,3.23
2019-06-10T11:51:41.095Z,3.20
2019-06-10T11:54:17.182Z,3.20
2019-06-10T11:56:48.379Z,3.20
2019-06-10T11:59:16.454Z,3.50
2019-06-10T12:01:45.152Z,3.60
2019-06-10T12:04:13.690Z,3.17
2019-06-10T12:06:43.356Z,3.60
2019-06-10T12:09:13.792Z,4.30
2019-06-10T12:11:47.085Z,3.73
2019-06-10T12:14:15.903Z,3.60
2019-06-10T12:17:17.574Z,3.83
2019-06-10T12:19:13.512Z,3.30
2019-06-10T12:21:43.408Z,3.83
2019-06-10T12:24:12.687Z,3.80
2019-06-10T12:26:43.233Z,3.77
2019-06-10T12:29:12.429Z,3.87
2019-06-10T12:31:42.588Z,3.90
2019-06-10T12:34:09.485Z,3.17
2019-06-10T12:36:37.346Z,3.43
2019-06-10T12:39:10.678Z,3.50
2019-06-10T12:41:36.936Z,3.90
2019-06-10T12:44:04.939Z,5.33
2019-06-10T12:46:32.892Z,3.90
2019-06-10T12:49:04.019Z,3.20
2019-06-10T12:51:32.298Z,3.97
2019-06-10T12:54:03.062Z,3.63
2019-06-10T12:56:29.450Z,3.37
2019-06-10T12:58:58.048Z,3.73
2019-06-10T13:01:26.910Z,3.83
2019-06-10T13:03:55.572Z,3.80
2019-06-10T13:06:24.344Z,3.73
2019-06-10T13:08:53.285Z,3.90
2019-06-10T13:11:23.386Z,4.43
2019-06-10T13:13:52.925Z,3.90
2019-06-10T13:16:20.386Z,3.60
2019-06-10T13:18:48.366Z,4.50
2019-06-10T13:21:17.764Z,3.27
2019-06-10T13:23:46.103Z,3.30
2019-06-10T13:26:16.597Z,4.00
2019-06-10T13:28:44.561Z,3.80
2019-06-10T13:31:13.945Z,3.83
2019-06-10T13:33:42.890Z,3.10
2019-06-10T13:36:11.294Z,3.50
2019-06-10T13:38:39.123Z,3.80
2019-06-10T13:41:07.791Z,3.40
2019-06-10T13:43:35.834Z,3.13
2019-06-10T13:46:06.986Z,3.80
2019-06-10T13:48:33.296Z,4.27
2019-06-10T13:51:04.743Z,3.40
2019-06-10T13:53:30.891Z,3.73
2019-06-10T13:56:19.921Z,3.53
2019-06-10T13:58:28.347Z,3.33
2019-06-10T14:00:56.171Z,3.33
2019-06-10T14:03:24.040Z,3.67
2019-06-10T14:05:57.797Z,3.70
2019-06-10T14:08:23.320Z,3.33
2019-06-10T14:10:54.122Z,3.40
2019-06-10T14:13:23.492Z,3.40
2019-06-10T14:15:53.415Z,3.50
2019-06-10T14:18:22.895Z,3.80
2019-06-10T14:20:52.784Z,3.37
2019-06-10T14:23:21.820Z,3.77
2019-06-10T14:25:49.328Z,3.80
2019-06-10T14:28:35.834Z,3.67
2019-06-10T14:30:46.775Z,3.90
2019-06-10T14:33:16.643Z,3.60
2019-06-10T14:35:44.268Z,5.00
2019-06-10T17:03:58.701Z,3.50
2019-06-10T17:06:30.061Z,3.20
2019-06-10T17:08:58.162Z,3.30
2019-06-10T17:11:34.451Z,3.10
2019-06-10T17:14:04.039Z,2.83
2019-06-10T17:16:34.574Z,2.60
2019-06-10T17:19:08.210Z,2.80
2019-06-10T17:21:58.777Z,2.90
2019-06-10T17:24:31.503Z,2.43
2019-06-10T17:27:02.691Z,3.27
2019-06-10T17:29:42.670Z,3.00
2019-06-10T17:32:18.001Z,5.60
2019-06-10T17:34:52.638Z,3.97
2019-06-10T17:37:18.277Z,3.63
2019-06-10T17:40:07.886Z,4.30
2019-06-10T17:42:42.836Z,3.43
2019-06-10T17:46:21.757Z,3.47
2019-06-10T17:48:03.718Z,4.00
2019-06-10T17:50:43.694Z,3.63
2019-06-10T17:53:32.969Z,3.60
2019-06-10T17:56:15.409Z,3.53
2019-06-10T17:58:59.457Z,3.60
2019-06-10T18:01:40.525Z,3.50
2019-06-10T18:04:36.141Z,4.30
2019-06-10T18:07:07.708Z,3.50
2019-06-10T18:09:37.149Z,3.50
2019-06-10T18:12:13.789Z,4.07
2019-06-10T18:14:59.635Z,3.80
2019-06-10T18:17:55.763Z,4.30
2019-06-10T18:20:24.411Z,5.33
2019-06-10T18:22:58.525Z,5.23
2019-06-10T18:25:28.638Z,6.80
2019-06-10T18:27:59.040Z,5.83
2019-06-10T18:30:27.347Z,6.60
2019-06-10T18:33:02.734Z,5.47
2019-06-10T18:35:37.590Z,6.27
2019-06-10T18:38:02.202Z,5.63
2019-06-10T18:40:31.498Z,5.53
2019-06-10T18:43:02.743Z,5.63
2019-06-10T18:45:33.316Z,4.80
2019-06-10T18:48:02.827Z,4.73
2019-06-10T18:50:36.171Z,4.83
2019-06-10T18:53:04.890Z,5.33
2019-06-10T18:55:37.692Z,4.40
2019-06-10T19:01:00.838Z,4.30
2019-06-10T19:03:43.352Z,4.80
2019-06-10T19:06:12.499Z,5.03
2019-06-10T19:08:44.655Z,5.17
2019-06-10T19:11:12.645Z,5.60
2019-06-10T19:13:43.717Z,6.00
2019-06-10T19:16:12.901Z,5.70
2019-06-10T19:18:43.974Z,5.83
2019-06-10T19:21:13.475Z,5.37
2019-06-10T19:23:44.551Z,5.50
2019-06-10T19:26:21.982Z,5.50
2019-06-10T19:28:53.211Z,6.13
2019-06-10T19:31:23.126Z,7.77
2019-06-10T19:33:55.739Z,4.90
2019-06-10T19:36:26.132Z,5.73
2019-06-10T19:38:54.907Z,5.87
2019-06-10T19:41:22.972Z,6.00
2019-06-10T19:43:52.869Z,5.80
2019-06-10T19:46:23.465Z,6.00
2019-06-10T19:49:01.704Z,5.33
2019-06-10T19:51:29.397Z,6.47
2019-06-10T19:53:59.923Z,6.00
2019-06-10T19:56:28.601Z,5.20
2019-06-10T19:58:57.740Z,6.30
2019-06-10T20:01:29.618Z,6.58
2019-06-10T20:04:02.490Z,6.10
2019-06-10T20:06:32.176Z,6.15
2019-06-10T20:08:59.965Z,6.78
2019-06-10T20:11:32.206Z,6.40
2019-06-10T20:14:02.548Z,7.20
2019-06-10T20:16:33.111Z,7.60
2019-06-10T20:19:04.615Z,7.80
2019-06-10T20:21:33.036Z,6.55
2019-06-10T20:24:02.936Z,6.90
2019-06-10T20:26:32.972Z,6.53
2019-06-10T20:29:03.620Z,7.15
2019-06-10T20:31:32.514Z,5.70
2019-06-10T20:34:02.623Z,6.40
2019-06-10T20:36:33.222Z,7.10
2019-06-10T20:39:05.985Z,6.92
2019-06-10T20:41:36.993Z,7.45
2019-06-10T20:44:07.101Z,7.10
2019-06-10T20:46:55.206Z,6.90
2019-06-10T20:49:29.684Z,8.08
2019-06-10T20:52:10.451Z,7.37
2019-06-10T20:55:15.305Z,7.40
2019-06-10T20:57:58.984Z,8.20
2019-06-10T21:00:26.326Z,7.60
2019-06-10T21:02:57.557Z,8.30
2019-06-10T21:05:48.057Z,8.27
2019-06-10T21:11:05.208Z,8.50
2019-06-10T21:14:16.363Z,9.50
2019-06-10T21:16:44.345Z,9.93
2019-06-10T21:19:13.546Z,8.83
2019-06-10T21:21:45.624Z,10.00
2019-06-10T21:24:16.244Z,10.25
2019-06-10T21:26:48.241Z,10.55
2019-06-10T21:29:34.589Z,11.05
2019-06-10T21:32:03.680Z,9.70
2019-06-10T21:34:32.733Z,9.60
2019-06-10T21:37:04.787Z,9.13
2019-06-10T21:39:32.749Z,9.88
2019-06-10T21:42:02.318Z,9.13
2019-06-10T21:44:32.420Z,9.03
2019-06-10T21:47:02.489Z,9.53
2019-06-10T21:49:32.236Z,9.68
2019-06-10T21:52:00.096Z,9.65
2019-06-10T21:54:28.043Z,8.43
2019-06-10T21:56:58.425Z,8.95
2019-06-10T21:59:28.438Z,9.70
2019-06-10T22:01:56.955Z,9.95
2019-06-10T22:04:27.025Z,9.40
2019-06-10T22:06:56.339Z,9.65
2019-06-10T22:09:26.241Z,9.00
2019-06-10T22:11:55.919Z,8.75
2019-06-10T22:14:26.004Z,7.70
2019-06-10T22:16:56.245Z,6.35
2019-06-10T22:19:25.861Z,6.70
2019-06-10T22:21:56.770Z,7.35
2019-06-10T22:24:27.336Z,6.65
2019-06-10T22:26:58.270Z,8.58
2019-06-10T22:29:26.478Z,7.75
2019-06-10T22:31:56.989Z,7.70
2019-06-10T22:34:32.913Z,7.25
2019-06-10T22:37:03.363Z,6.72
2019-06-10T22:39:32.567Z,6.90
2019-06-10T22:42:03.027Z,6.90
2019-06-10T22:44:33.085Z,6.15
2019-06-10T22:47:04.041Z,6.85
2019-06-10T22:49:33.234Z,6.90
2019-06-10T22:52:08.260Z,7.45
2019-06-10T22:54:43.075Z,6.50
2019-06-10T22:57:09.313Z,7.37
2019-06-10T22:59:42.403Z,8.10
2019-06-10T23:02:09.585Z,8.40
2019-06-10T23:04:37.766Z,11.68
2019-06-10T23:07:05.729Z,13.88
2019-06-10T23:09:56.343Z,13.75
2019-06-10T23:12:24.984Z,15.43
2019-06-10T23:15:13.020Z,16.95
2019-06-10T23:17:42.450Z,16.65
2019-06-10T23:20:12.475Z,17.92
2019-06-10T23:22:41.698Z,16.30
2019-06-10T23:25:13.886Z,17.45
2019-06-10T23:27:44.317Z,18.52
2019-06-10T23:30:12.098Z,18.77
2019-06-10T23:32:42.271Z,18.95
2019-06-10T23:35:12.486Z,19.37
2019-06-10T23:37:42.728Z,18.20
2019-06-10T23:40:12.671Z,18.95
2019-06-10T23:42:44.705Z,19.30
2019-06-10T23:45:13.192Z,18.57
2019-06-10T23:47:46.715Z,18.82
2019-06-10T23:50:17.088Z,18.65
2019-06-10T23:52:47.095Z,17.98
2019-06-10T23:55:15.547Z,18.70
2019-06-10T23:57:46.424Z,18.98
